Time;durP1;ratioP1;P1;durP2;ratioP2;P2;SDS_P1;SDS_P2;PMS_P1;PMS_P2;Temp;Humidity;BMP_temperature;BMP_pressure;BME280_temperature;BME280_humidity;BME280_pressure;Samples;Min_cycle;Max_cycle;Signal;HPM_P1;HPM_P2
2023/03/27 00:01:10;;;;;;;;;;;19.10;54.70;;;;;;6275702;28;19915;-69
2023/03/27 00:04:14;;;;;;;;;;;19.10;54.50;;;;;;6293642;28;20003;-69
2023/03/27 00:07:15;;;;;;;;;;;19.10;55.40;;;;;;6293805;28;19908;-69
2023/03/27 00:10:16;;;;;;;;;;;19.10;54.70;;;;;;6293855;28;19905;-69
2023/03/27 00:13:17;;;;;;;;;;;19.10;54.70;;;;;;6293621;28;19910;-69
2023/03/27 00:16:18;;;;;;;;;;;19.10;54.50;;;;;;6293713;28;20003;-69
2023/03/27 00:19:19;;;;;;;;;;;19.10;54.60;;;;;;6293459;28;19919;-69
2023/03/27 00:22:20;;;;;;;;;;;19.10;54.60;;;;;;6266772;28;20362;-69
2023/03/27 00:25:22;;;;;;;;;;;19.10;54.60;;;;;;6269834;28;19908;-69
2023/03/27 00:28:25;;;;;;;;;;;19.10;54.50;;;;;;6275517;28;19912;-69
2023/03/27 00:31:26;;;;;;;;;;;19.10;54.50;;;;;;6293299;28;19947;-70
2023/03/27 00:34:27;;;;;;;;;;;19.10;54.60;;;;;;6288436;28;19911;-69
2023/03/27 00:37:28;;;;;;;;;;;19.10;54.60;;;;;;6275518;28;19904;-69
2023/03/27 00:40:30;;;;;;;;;;;19.10;54.50;;;;;;6295918;28;19935;-69
2023/03/27 00:43:35;;;;;;;;;;;19.10;54.40;;;;;;6298171;28;19911;-69
2023/03/27 00:46:41;;;;;;;;;;;19.10;54.60;;;;;;6298222;28;19908;-69
2023/03/27 00:49:42;;;;;;;;;;;19.10;54.60;;;;;;6298615;28;20478;-69
2023/03/27 00:52:46;;;;;;;;;;;19.10;54.40;;;;;;6298198;28;19908;-69
2023/03/27 00:55:49;;;;;;;;;;;19.10;54.60;;;;;;6298128;28;19905;-69
2023/03/27 00:58:52;;;;;;;;;;;19.10;54.40;;;;;;6297776;28;19908;-69
2023/03/27 01:01:53;;;;;;;;;;;19.10;54.40;;;;;;6298642;28;19905;-69
2023/03/27 01:04:54;;;;;;;;;;;19.10;54.50;;;;;;6297570;28;20463;-69
2023/03/27 01:07:56;;;;;;;;;;;19.10;54.30;;;;;;6279703;28;19912;-69
2023/03/27 01:11:02;;;;;;;;;;;19.10;54.40;;;;;;6297589;28;20346;-69
2023/03/27 01:14:06;;;;;;;;;;;19.10;54.50;;;;;;6297647;28;19908;-69
2023/03/27 01:17:22;;;;;;;;;;;19.10;54.30;;;;;;6297621;28;19904;-69
2023/03/27 01:20:34;;;;;;;;;;;19.10;54.30;;;;;;6272542;28;19916;-69
2023/03/27 01:23:38;;;;;;;;;;;19.10;54.20;;;;;;6279375;28;19911;-69
2023/03/27 01:26:57;;;;;;;;;;;19.10;54.10;;;;;;6297829;28;19951;-69
2023/03/27 01:29:58;;;;;;;;;;;19.10;54.30;;;;;;6279239;28;19934;-69
2023/03/27 01:32:58;;;;;;;;;;;19.10;54.20;;;;;;6279390;28;19908;-69
2023/03/27 01:36:17;;;;;;;;;;;19.10;54.10;;;;;;6297173;28;19904;-69
2023/03/27 01:39:47;;;;;;;;;;;19.10;54.10;;;;;;6270621;28;19909;-69
2023/03/27 01:42:58;;;;;;;;;;;19.10;54.20;;;;;;6256158;28;19905;-69
2023/03/27 01:46:06;;;;;;;;;;;19.10;54.10;;;;;;6297021;28;20413;-69
2023/03/27 01:49:22;;;;;;;;;;;19.10;54.10;;;;;;6296822;28;20389;-67
2023/03/27 01:52:28;;;;;;;;;;;19.10;54.10;;;;;;6278963;28;19908;-69
2023/03/27 01:55:31;;;;;;;;;;;19.10;54.00;;;;;;6296931;28;19908;-69
2023/03/27 01:58:38;;;;;;;;;;;19.10;54.10;;;;;;6296831;28;20436;-69
2023/03/27 02:01:41;;;;;;;;;;;19.10;54.10;;;;;;6296802;28;20387;-69
2023/03/27 02:04:45;;;;;;;;;;;19.10;54.10;;;;;;6296382;28;19920;-69
2023/03/27 02:07:48;;;;;;;;;;;19.10;54.00;;;;;;6296550;28;19930;-69
2023/03/27 02:10:49;;;;;;;;;;;19.10;54.10;;;;;;6296586;28;19904;-69
2023/03/27 02:13:53;;;;;;;;;;;19.10;54.10;;;;;;6296485;28;19911;-69
2023/03/27 02:16:55;;;;;;;;;;;19.10;54.10;;;;;;6296192;28;19909;-69
2023/03/27 02:20:13;;;;;;;;;;;19.10;54.20;;;;;;6296222;28;19913;-69
2023/03/27 02:23:14;;;;;;;;;;;19.10;53.90;;;;;;6296251;28;19908;-69
2023/03/27 02:26:15;;;;;;;;;;;19.10;54.10;;;;;;6290464;28;19904;-69
2023/03/27 02:29:30;;;;;;;;;;;19.10;54.10;;;;;;6295897;28;19991;-69
2023/03/27 02:32:34;;;;;;;;;;;19.10;54.10;;;;;;6296158;28;20053;-69
2023/03/27 02:35:53;;;;;;;;;;;19.10;54.00;;;;;;6295881;28;19985;-69
2023/03/27 02:38:57;;;;;;;;;;;19.10;54.10;;;;;;6295755;28;19912;-69
2023/03/27 02:42:03;;;;;;;;;;;19.10;54.10;;;;;;6295826;28;19908;-70
2023/03/27 02:45:10;;;;;;;;;;;19.10;53.90;;;;;;6295801;28;19911;-69
2023/03/27 02:48:16;;;;;;;;;;;19.10;54.00;;;;;;6295910;28;19915;-69
2023/03/27 02:51:25;;;;;;;;;;;19.10;53.90;;;;;;6295973;28;19904;-69
2023/03/27 02:54:31;;;;;;;;;;;19.10;53.90;;;;;;6294065;28;19937;-69
2023/03/27 02:57:38;;;;;;;;;;;19.10;53.90;;;;;;6294806;28;19911;-69
2023/03/27 03:00:42;;;;;;;;;;;19.10;54.00;;;;;;6293984;28;19931;-69
2023/03/27 03:03:43;;;;;;;;;;;19.10;53.70;;;;;;6294361;28;19952;-69
2023/03/27 03:06:43;;;;;;;;;;;19.10;53.90;;;;;;6295594;28;19904;-69
2023/03/27 03:09:44;;;;;;;;;;;19.10;53.90;;;;;;6276975;28;19905;-69
2023/03/27 03:12:45;;;;;;;;;;;19.10;53.80;;;;;;6295565;28;19987;-69
2023/03/27 03:15:46;;;;;;;;;;;19.10;53.70;;;;;;6288928;28;20369;-69
2023/03/27 03:18:46;;;;;;;;;;;19.10;53.60;;;;;;6294771;28;19981;-69
2023/03/27 03:21:48;;;;;;;;;;;19.10;53.60;;;;;;6276699;28;20380;-69
2023/03/27 03:24:49;;;;;;;;;;;19.10;53.60;;;;;;6300862;28;19962;-69
2023/03/27 03:27:56;;;;;;;;;;;19.10;53.50;;;;;;6294696;28;19911;-69
2023/03/27 03:30:57;;;;;;;;;;;19.10;53.50;;;;;;6294486;28;19904;-69
2023/03/27 03:33:58;;;;;;;;;;;19.10;53.60;;;;;;6294163;28;19954;-69
2023/03/27 03:36:59;;;;;;;;;;;19.10;53.70;;;;;;6294608;28;19955;-69
2023/03/27 03:40:00;;;;;;;;;;;19.10;53.60;;;;;;6294067;28;20285;-69
2023/03/27 03:43:00;;;;;;;;;;;19.10;53.50;;;;;;6276378;28;19915;-69
2023/03/27 03:46:01;;;;;;;;;;;19.10;53.70;;;;;;6293811;28;19908;-69
2023/03/27 03:49:03;;;;;;;;;;;19.10;53.40;;;;;;6294637;28;19912;-69
2023/03/27 03:52:04;;;;;;;;;;;19.10;53.60;;;;;;6275997;28;19912;-69
2023/03/27 03:55:05;;;;;;;;;;;19.10;53.60;;;;;;6294183;28;19905;-69
2023/03/27 03:58:05;;;;;;;;;;;19.10;53.60;;;;;;6293996;28;20262;-69
2023/03/27 04:01:07;;;;;;;;;;;19.10;53.60;;;;;;6293713;28;19908;-69
2023/03/27 04:04:08;;;;;;;;;;;19.10;53.50;;;;;;6293506;28;20487;-69
2023/03/27 04:07:09;;;;;;;;;;;19.10;53.60;;;;;;6293937;28;19938;-69
2023/03/27 04:10:10;;;;;;;;;;;19.10;53.60;;;;;;6293352;28;19908;-69
2023/03/27 04:13:11;;;;;;;;;;;19.10;53.60;;;;;;6286594;28;20433;-69
2023/03/27 04:16:11;;;;;;;;;;;19.10;53.60;;;;;;6267689;28;19916;-69
2023/03/27 04:19:12;;;;;;;;;;;19.00;53.40;;;;;;6268878;28;19912;-69
2023/03/27 04:22:16;;;;;;;;;;;19.10;53.90;;;;;;6269136;28;19905;-69
2023/03/27 04:25:16;;;;;;;;;;;19.00;53.70;;;;;;6268610;28;19908;-69
2023/03/27 04:28:17;;;;;;;;;;;19.10;53.60;;;;;;6268917;28;19996;-69
2023/03/27 04:31:17;;;;;;;;;;;19.10;53.40;;;;;;6275591;28;19940;-69
2023/03/27 04:34:19;;;;;;;;;;;19.10;53.70;;;;;;6291766;28;19905;-69
2023/03/27 04:37:21;;;;;;;;;;;19.10;53.70;;;;;;6293748;28;19909;-69
2023/03/27 04:40:24;;;;;;;;;;;19.10;53.80;;;;;;6293692;28;20265;-69
2023/03/27 04:43:27;;;;;;;;;;;19.10;53.60;;;;;;6289900;28;19905;-69
2023/03/27 04:46:28;;;;;;;;;;;19.10;53.10;;;;;;6275466;28;19904;-69
2023/03/27 04:49:28;;;;;;;;;;;19.10;53.20;;;;;;6275495;28;20010;-69
2023/03/27 04:52:29;;;;;;;;;;;19.10;53.60;;;;;;6292895;28;19906;-68
2023/03/27 04:55:36;;;;;;;;;;;19.10;53.20;;;;;;6275195;28;20281;-69
2023/03/27 04:58:39;;;;;;;;;;;19.10;53.30;;;;;;6292343;28;20280;-69
2023/03/27 05:01:40;;;;;;;;;;;19.10;53.50;;;;;;6292394;28;19904;-69
2023/03/27 05:04:41;;;;;;;;;;;19.10;53.30;;;;;;6292782;28;19938;-69
2023/03/27 05:07:45;;;;;;;;;;;19.10;53.30;;;;;;6261339;28;19905;-69
2023/03/27 05:10:46;;;;;;;;;;;19.10;53.60;;;;;;6268287;28;19905;-69
2023/03/27 05:13:46;;;;;;;;;;;19.10;53.60;;;;;;6289630;28;19987;-69
2023/03/27 05:16:51;;;;;;;;;;;19.10;53.40;;;;;;6292908;28;19973;-69
2023/03/27 05:19:51;;;;;;;;;;;19.10;53.40;;;;;;6292856;28;19914;-69
2023/03/27 05:22:53;;;;;;;;;;;19.10;53.30;;;;;;6261583;28;19908;-69
2023/03/27 05:25:55;;;;;;;;;;;19.10;53.60;;;;;;6288847;28;20348;-69
2023/03/27 05:28:57;;;;;;;;;;;19.10;53.30;;;;;;6297322;28;19905;-69
2023/03/27 05:31:58;;;;;;;;;;;19.10;53.50;;;;;;6297639;28;19904;-69
2023/03/27 05:34:58;;;;;;;;;;;19.10;53.40;;;;;;6297017;28;20392;-69
2023/03/27 05:37:59;;;;;;;;;;;19.10;53.40;;;;;;6297200;28;19915;-71
2023/03/27 05:41:01;;;;;;;;;;;19.10;53.60;;;;;;6276526;28;19935;-68
2023/03/27 05:44:02;;;;;;;;;;;19.10;53.60;;;;;;6292811;28;20285;-67
2023/03/27 05:47:03;;;;;;;;;;;19.10;53.50;;;;;;6293473;28;19912;-68
2023/03/27 05:50:04;;;;;;;;;;;19.10;53.70;;;;;;6322374;28;19912;-68
2023/03/27 05:53:08;;;;;;;;;;;19.10;53.70;;;;;;6301355;28;19912;-68
2023/03/27 05:56:09;;;;;;;;;;;19.10;53.90;;;;;;6300506;28;19991;-68
2023/03/27 05:59:09;;;;;;;;;;;19.10;53.90;;;;;;6311769;28;20312;-69
2023/03/27 06:02:10;;;;;;;;;;;19.10;53.90;;;;;;6298968;28;19904;-68
2023/03/27 06:05:14;;;;;;;;;;;19.10;53.90;;;;;;6293136;28;19923;-68
2023/03/27 06:08:15;;;;;;;;;;;19.10;54.00;;;;;;6298843;28;20331;-69
2023/03/27 06:11:16;;;;;;;;;;;19.10;54.10;;;;;;6300005;28;19962;-69
2023/03/27 06:14:17;;;;;;;;;;;19.10;54.10;;;;;;6304459;28;20292;-69
2023/03/27 06:17:17;;;;;;;;;;;19.10;54.10;;;;;;6322538;28;19904;-69
2023/03/27 06:20:20;;;;;;;;;;;19.10;54.10;;;;;;6322774;28;19912;-71
2023/03/27 06:23:20;;;;;;;;;;;19.10;54.10;;;;;;6304022;28;19911;-68
2023/03/27 06:26:21;;;;;;;;;;;19.10;54.10;;;;;;6297020;28;19913;-68
2023/03/27 06:29:21;;;;;;;;;;;19.10;54.10;;;;;;6282608;28;19940;-69
2023/03/27 06:32:22;;;;;;;;;;;19.20;54.20;;;;;;6305892;28;19908;-68
2023/03/27 06:35:24;;;;;;;;;;;19.10;54.10;;;;;;6261401;28;19920;-68
2023/03/27 06:38:26;;;;;;;;;;;19.20;54.20;;;;;;6293789;28;20262;-69
2023/03/27 06:41:27;;;;;;;;;;;19.10;54.10;;;;;;6296888;28;19955;-69
2023/03/27 06:44:28;;;;;;;;;;;19.10;54.20;;;;;;6306328;28;20280;-69
2023/03/27 06:47:29;;;;;;;;;;;19.10;54.20;;;;;;6297095;28;19912;-69
2023/03/27 06:50:31;;;;;;;;;;;19.10;54.20;;;;;;6297234;28;19905;-68
2023/03/27 06:53:31;;;;;;;;;;;19.10;54.20;;;;;;6296641;28;20357;-69
2023/03/27 06:56:32;;;;;;;;;;;19.10;54.90;;;;;;6278649;28;19915;-69
2023/03/27 06:59:32;;;;;;;;;;;19.10;54.20;;;;;;6276870;28;19913;-69
2023/03/27 07:02:33;;;;;;;;;;;19.10;54.30;;;;;;6302424;28;19904;-70
2023/03/27 07:05:37;;;;;;;;;;;19.10;54.30;;;;;;6303581;28;19923;-70
2023/03/27 07:08:38;;;;;;;;;;;19.10;54.30;;;;;;6321209;28;19904;-70
2023/03/27 07:11:39;;;;;;;;;;;19.10;54.30;;;;;;6321634;28;19911;-70
2023/03/27 07:14:39;;;;;;;;;;;19.10;54.30;;;;;;6308952;28;19904;-70
2023/03/27 07:17:43;;;;;;;;;;;19.10;54.30;;;;;;6296288;28;19905;-70
2023/03/27 07:20:44;;;;;;;;;;;19.10;55.00;;;;;;6298096;28;19908;-70
2023/03/27 07:23:45;;;;;;;;;;;19.10;54.30;;;;;;6281814;28;19911;-71
2023/03/27 07:26:45;;;;;;;;;;;19.10;54.30;;;;;;6298929;28;20309;-70
2023/03/27 07:29:46;;;;;;;;;;;19.10;54.30;;;;;;6296564;28;19904;-71
2023/03/27 07:32:46;;;;;;;;;;;19.10;54.30;;;;;;6320634;28;19957;-70
2023/03/27 07:35:47;;;;;;;;;;;19.10;54.30;;;;;;6278814;28;19905;-70
2023/03/27 07:38:48;;;;;;;;;;;19.10;54.30;;;;;;6297598;28;19904;-70
2023/03/27 07:41:48;;;;;;;;;;;19.10;54.30;;;;;;6278410;28;20022;-70
2023/03/27 07:44:49;;;;;;;;;;;19.10;54.40;;;;;;6311483;28;19904;-72
2023/03/27 07:47:49;;;;;;;;;;;19.10;54.30;;;;;;6276322;28;19904;-70
2023/03/27 07:50:50;;;;;;;;;;;19.10;54.30;;;;;;6298634;28;19904;-70
2023/03/27 07:53:57;;;;;;;;;;;19.10;54.30;;;;;;6274351;28;19905;-70
2023/03/27 07:56:58;;;;;;;;;;;19.20;54.50;;;;;;6291248;28;20373;-71
2023/03/27 07:59:58;;;;;;;;;;;19.10;54.30;;;;;;6281122;28;19943;-70
2023/03/27 08:03:06;;;;;;;;;;;19.10;54.40;;;;;;6273720;28;19965;-71
2023/03/27 08:06:06;;;;;;;;;;;19.10;55.10;;;;;;6284509;28;19904;-70
2023/03/27 08:09:07;;;;;;;;;;;19.10;54.40;;;;;;6302761;28;20005;-70
2023/03/27 08:12:07;;;;;;;;;;;19.10;54.40;;;;;;6320024;28;19908;-70
2023/03/27 08:15:08;;;;;;;;;;;19.10;54.40;;;;;;6312103;28;19904;-72
2023/03/27 08:18:10;;;;;;;;;;;19.10;54.40;;;;;;6295022;28;19904;-70
2023/03/27 08:21:11;;;;;;;;;;;19.10;54.40;;;;;;6286495;28;20051;-71
2023/03/27 08:24:12;;;;;;;;;;;19.10;54.40;;;;;;6312009;28;19970;-70
2023/03/27 08:27:12;;;;;;;;;;;19.10;54.40;;;;;;6277814;28;20281;-70
2023/03/27 08:30:13;;;;;;;;;;;19.10;54.50;;;;;;6301876;28;19911;-70
2023/03/27 08:33:15;;;;;;;;;;;19.10;54.50;;;;;;6276551;28;19904;-70
2023/03/27 08:36:18;;;;;;;;;;;19.10;54.50;;;;;;6273800;28;19951;-70
2023/03/27 08:39:21;;;;;;;;;;;19.10;54.50;;;;;;6279535;28;20258;-71
2023/03/27 08:42:33;;;;;;;;;;;19.10;54.50;;;;;;6319844;28;20315;-70
2023/03/27 08:45:36;;;;;;;;;;;19.10;54.60;;;;;;6301320;28;19915;-72
2023/03/27 08:48:42;;;;;;;;;;;19.10;54.60;;;;;;6301604;28;19909;-70
2023/03/27 08:51:46;;;;;;;;;;;19.10;54.50;;;;;;6319638;28;20495;-70
2023/03/27 08:54:52;;;;;;;;;;;19.10;54.60;;;;;;6320026;28;19904;-70
2023/03/27 08:57:53;;;;;;;;;;;19.10;54.60;;;;;;6319613;28;19915;-70
2023/03/27 09:00:59;;;;;;;;;;;19.10;54.50;;;;;;6312488;28;19930;-70
2023/03/27 09:04:11;;;;;;;;;;;19.10;54.50;;;;;;6298865;28;20376;-69
2023/03/27 09:07:15;;;;;;;;;;;19.10;54.60;;;;;;6289189;28;19940;-70
2023/03/27 09:10:20;;;;;;;;;;;19.10;54.60;;;;;;6306262;28;19904;-71
2023/03/27 09:13:27;;;;;;;;;;;19.10;54.50;;;;;;6281416;28;20365;-72
2023/03/27 09:16:36;;;;;;;;;;;19.10;54.50;;;;;;6299067;28;19904;-70
2023/03/27 09:19:43;;;;;;;;;;;19.10;54.50;;;;;;6282415;28;20504;-70
2023/03/27 09:22:46;;;;;;;;;;;19.20;54.30;;;;;;6314589;28;19952;-69
2023/03/27 09:25:50;;;;;;;;;;;19.10;54.30;;;;;;6288991;28;19904;-70
2023/03/27 09:29:01;;;;;;;;;;;19.10;54.30;;;;;;6323945;28;20365;-69
2023/03/27 09:32:02;;;;;;;;;;;19.10;54.30;;;;;;6310242;28;20003;-72
2023/03/27 09:35:03;;;;;;;;;;;19.10;54.40;;;;;;6297200;28;19965;-70
2023/03/27 09:38:30;;;;;;;;;;;19.10;54.40;;;;;;6297951;28;19940;-70
2023/03/27 09:41:33;;;;;;;;;;;19.10;54.20;;;;;;6279926;28;19912;-70
2023/03/27 09:44:40;;;;;;;;;;;19.10;54.10;;;;;;6283910;28;20280;-69
2023/03/27 09:47:56;;;;;;;;;;;19.20;54.30;;;;;;6306470;28;19911;-70
2023/03/27 09:50:57;;;;;;;;;;;19.10;54.20;;;;;;6301349;28;20006;-70
2023/03/27 09:53:58;;;;;;;;;;;19.10;54.30;;;;;;6297933;28;19911;-70
2023/03/27 09:57:02;;;;;;;;;;;19.10;54.30;;;;;;6294077;28;20368;-70
2023/03/27 10:00:08;;;;;;;;;;;19.10;54.30;;;;;;6323001;28;19916;-69
2023/03/27 10:03:19;;;;;;;;;;;19.10;54.40;;;;;;6304068;28;19913;-70
2023/03/27 10:06:42;;;;;;;;;;;19.10;54.30;;;;;;6303752;28;19904;-73
2023/03/27 10:09:42;;;;;;;;;;;19.10;54.30;;;;;;6323239;28;19998;-73
2023/03/27 10:12:44;;;;;;;;;;;19.10;54.30;;;;;;6309357;28;20365;-70
2023/03/27 10:15:45;;;;;;;;;;;19.10;54.40;;;;;;6298630;28;20376;-68
2023/03/27 10:18:47;;;;;;;;;;;19.20;54.50;;;;;;6275034;28;19909;-69
2023/03/27 10:21:48;;;;;;;;;;;19.10;54.40;;;;;;6296744;28;19912;-69
2023/03/27 10:24:51;;;;;;;;;;;19.10;54.40;;;;;;6297199;28;19944;-69
2023/03/27 10:27:53;;;;;;;;;;;19.10;54.50;;;;;;6274400;28;20011;-69
2023/03/27 10:30:58;;;;;;;;;;;19.10;54.40;;;;;;6273083;28;20242;-70
2023/03/27 10:34:01;;;;;;;;;;;19.10;54.40;;;;;;6295856;28;19908;-70
2023/03/27 10:37:03;;;;;;;;;;;19.10;54.50;;;;;;6279255;28;19926;-70
2023/03/27 10:40:08;;;;;;;;;;;19.10;54.40;;;;;;6303379;28;19958;-69
2023/03/27 10:43:11;;;;;;;;;;;19.10;54.50;;;;;;6290616;28;19911;-69
2023/03/27 10:46:22;;;;;;;;;;;19.10;54.50;;;;;;6316487;28;20288;-74
2023/03/27 10:49:32;;;;;;;;;;;19.10;54.50;;;;;;6303519;28;20296;-70
2023/03/27 10:52:48;;;;;;;;;;;19.20;54.50;;;;;;6296896;28;19908;-69
2023/03/27 10:55:50;;;;;;;;;;;19.10;53.90;;;;;;6296394;28;19998;-69
2023/03/27 10:58:56;;;;;;;;;;;19.20;53.80;;;;;;6303916;28;19911;-69
2023/03/27 11:02:03;;;;;;;;;;;19.10;54.20;;;;;;6317949;28;20317;-69
2023/03/27 11:05:10;;;;;;;;;;;19.10;54.20;;;;;;6285121;28;19916;-74
2023/03/27 11:08:15;;;;;;;;;;;19.10;54.30;;;;;;6294195;28;19904;-73
2023/03/27 11:11:18;;;;;;;;;;;19.10;54.30;;;;;;6321542;28;20383;-74
2023/03/27 11:14:25;;;;;;;;;;;19.10;54.10;;;;;;6303790;28;19911;-75
2023/03/27 11:17:45;;;;;;;;;;;19.10;53.50;;;;;;6317345;28;19954;-75
2023/03/27 11:20:51;;;;;;;;;;;19.10;51.60;;;;;;6296732;28;19912;-75
2023/03/27 11:23:55;;;;;;;;;;;19.10;51.20;;;;;;6294451;28;20029;-75
2023/03/27 11:27:22;;;;;;;;;;;19.10;51.30;;;;;;6301031;28;19905;-75
2023/03/27 11:30:40;;;;;;;;;;;19.10;52.20;;;;;;6240599;28;19966;-75
2023/03/27 11:33:43;;;;;;;;;;;19.20;52.50;;;;;;6282617;28;20280;-75
2023/03/27 11:36:56;;;;;;;;;;;19.20;52.90;;;;;;6278188;28;19950;-75
2023/03/27 11:39:57;;;;;;;;;;;19.10;53.00;;;;;;6317695;28;19908;-75
2023/03/27 11:42:58;;;;;;;;;;;19.10;53.90;;;;;;6317796;28;19961;-75
2023/03/27 11:45:58;;;;;;;;;;;19.10;53.40;;;;;;6296411;28;19904;-77
2023/03/27 11:48:59;;;;;;;;;;;19.10;53.40;;;;;;6307859;28;19911;-75
2023/03/27 11:52:18;;;;;;;;;;;19.10;53.60;;;;;;6321478;28;19943;-76
2023/03/27 11:55:20;;;;;;;;;;;19.10;53.60;;;;;;6304906;28;20011;-75
2023/03/27 11:58:33;;;;;;;;;;;19.10;53.60;;;;;;6280995;28;19908;-76
2023/03/27 12:01:52;;;;;;;;;;;19.10;53.70;;;;;;6320578;28;19967;-75
2023/03/27 12:04:56;;;;;;;;;;;19.10;53.70;;;;;;6318160;28;19919;-75
2023/03/27 12:07:58;;;;;;;;;;;19.10;53.80;;;;;;6320067;28;19908;-75
2023/03/27 12:11:01;;;;;;;;;;;19.10;53.90;;;;;;6313039;28;19908;-75
2023/03/27 12:14:18;;;;;;;;;;;19.10;54.00;;;;;;6299463;28;19905;-75
2023/03/27 12:17:31;;;;;;;;;;;19.10;53.90;;;;;;6277199;28;19993;-75
2023/03/27 12:21:01;;;;;;;;;;;19.10;53.90;;;;;;6314787;28;19912;-75
2023/03/27 12:24:15;;;;;;;;;;;19.10;54.00;;;;;;6228735;28;19919;-75
2023/03/27 12:27:29;;;;;;;;;;;19.10;54.00;;;;;;6301744;28;19908;-75
2023/03/27 12:30:39;;;;;;;;;;;19.10;54.00;;;;;;6319634;28;20280;-75
2023/03/27 12:33:40;;;;;;;;;;;19.10;54.00;;;;;;6297447;28;20026;-75
2023/03/27 12:36:44;;;;;;;;;;;19.10;54.10;;;;;;6297287;28;20358;-75
2023/03/27 12:39:50;;;;;;;;;;;19.10;54.10;;;;;;6305527;28;19914;-75
2023/03/27 12:42:51;;;;;;;;;;;19.10;54.10;;;;;;6324632;28;19904;-75
2023/03/27 12:46:14;;;;;;;;;;;19.10;54.10;;;;;;6307441;28;20549;-75
2023/03/27 12:49:15;;;;;;;;;;;19.10;54.10;;;;;;6303517;28;19904;-75
2023/03/27 12:52:18;;;;;;;;;;;19.10;54.20;;;;;;6300364;28;19904;-74
2023/03/27 12:55:18;;;;;;;;;;;19.10;54.20;;;;;;6300179;28;19904;-73
2023/03/27 12:58:30;;;;;;;;;;;19.20;54.40;;;;;;6324856;28;20017;-72
2023/03/27 13:01:54;;;;;;;;;;;19.10;54.10;;;;;;6303155;28;20348;-75
2023/03/27 13:05:04;;;;;;;;;;;19.10;54.00;;;;;;6280806;28;20008;-75
2023/03/27 13:08:05;;;;;;;;;;;19.10;54.00;;;;;;6281784;28;19962;-75
2023/03/27 13:11:18;;;;;;;;;;;19.10;54.10;;;;;;6315657;28;20258;-76
2023/03/27 13:14:28;;;;;;;;;;;19.10;54.20;;;;;;6313948;28;19955;-75
2023/03/27 13:17:47;;;;;;;;;;;19.10;54.30;;;;;;6324641;28;20652;-75
2023/03/27 13:20:55;;;;;;;;;;;19.10;54.20;;;;;;6305603;28;19908;-77
2023/03/27 13:24:14;;;;;;;;;;;19.20;54.40;;;;;;6287150;28;19912;-75
2023/03/27 13:27:18;;;;;;;;;;;19.20;54.40;;;;;;6320872;28;19912;-75
2023/03/27 13:30:37;;;;;;;;;;;19.20;54.40;;;;;;6324024;28;19930;-75
2023/03/27 13:33:45;;;;;;;;;;;19.10;54.40;;;;;;6304616;28;19915;-71
2023/03/27 13:36:47;;;;;;;;;;;19.10;54.30;;;;;;6299267;28;20349;-71
2023/03/27 13:39:54;;;;;;;;;;;19.10;54.40;;;;;;6299296;28;19962;-71
2023/03/27 13:42:58;;;;;;;;;;;19.20;54.50;;;;;;6280570;28;19941;-71
2023/03/27 13:46:00;;;;;;;;;;;19.10;54.40;;;;;;6296625;28;19911;-71
2023/03/27 13:49:06;;;;;;;;;;;19.10;54.40;;;;;;6281130;28;19905;-71
2023/03/27 13:52:09;;;;;;;;;;;19.10;54.40;;;;;;6291220;28;19904;-71
2023/03/27 13:55:10;;;;;;;;;;;19.10;54.40;;;;;;6298634;28;20281;-71
2023/03/27 13:58:10;;;;;;;;;;;19.10;54.40;;;;;;6298896;28;19905;-71
2023/03/27 14:01:24;;;;;;;;;;;19.10;54.40;;;;;;6296144;28;19946;-71
2023/03/27 14:04:26;;;;;;;;;;;19.20;54.50;;;;;;6298109;28;19916;-71
2023/03/27 14:07:27;;;;;;;;;;;19.10;54.40;;;;;;6298061;28;20397;-71
2023/03/27 14:10:34;;;;;;;;;;;19.10;54.40;;;;;;6298703;28;19912;-72
2023/03/27 14:13:38;;;;;;;;;;;19.20;54.50;;;;;;6297631;28;19908;-71
2023/03/27 14:16:38;;;;;;;;;;;19.10;54.50;;;;;;6298185;28;19908;-72
2023/03/27 14:19:42;;;;;;;;;;;19.10;54.40;;;;;;6280120;28;19958;-71
2023/03/27 14:22:47;;;;;;;;;;;19.10;54.30;;;;;;6280077;28;20276;-71
2023/03/27 14:25:53;;;;;;;;;;;19.10;54.40;;;;;;6279672;28;20474;-71
2023/03/27 14:28:57;;;;;;;;;;;19.20;54.50;;;;;;6280066;28;20003;-71
2023/03/27 14:32:02;;;;;;;;;;;19.20;54.50;;;;;;6279913;28;20289;-71
2023/03/27 14:35:04;;;;;;;;;;;19.20;54.50;;;;;;6280168;28;19908;-71
2023/03/27 14:38:06;;;;;;;;;;;19.20;54.50;;;;;;6297747;28;20319;-71
2023/03/27 14:41:17;;;;;;;;;;;19.10;54.30;;;;;;6297712;28;19933;-71
2023/03/27 14:44:19;;;;;;;;;;;19.10;54.40;;;;;;6279268;28;19991;-71
2023/03/27 14:47:21;;;;;;;;;;;19.10;54.40;;;;;;6297618;28;19935;-71
2023/03/27 14:50:23;;;;;;;;;;;19.10;54.40;;;;;;6279541;28;19911;-71
2023/03/27 14:53:25;;;;;;;;;;;19.20;54.50;;;;;;6278871;28;19904;-71
2023/03/27 14:56:40;;;;;;;;;;;19.10;54.40;;;;;;6297246;28;19957;-71
2023/03/27 14:59:41;;;;;;;;;;;19.20;54.50;;;;;;6296603;28;19908;-71
2023/03/27 15:02:42;;;;;;;;;;;19.20;54.60;;;;;;6307111;28;19931;-71
2023/03/27 15:05:55;;;;;;;;;;;19.20;54.50;;;;;;6321644;28;20327;-72
2023/03/27 15:08:59;;;;;;;;;;;19.20;54.50;;;;;;6301509;28;19912;-71
2023/03/27 15:12:02;;;;;;;;;;;19.10;54.40;;;;;;6297077;28;19957;-71
2023/03/27 15:15:05;;;;;;;;;;;19.10;54.50;;;;;;6277793;28;19908;-71
2023/03/27 15:18:27;;;;;;;;;;;19.10;54.50;;;;;;6296960;28;19905;-71
2023/03/27 15:21:55;;;;;;;;;;;19.20;54.50;;;;;;6278502;28;20365;-71
2023/03/27 15:25:10;;;;;;;;;;;19.20;54.60;;;;;;6275050;28;19925;-71
2023/03/27 15:28:23;;;;;;;;;;;19.20;54.50;;;;;;6277945;28;19912;-71
2023/03/27 15:31:24;;;;;;;;;;;19.10;54.40;;;;;;6295418;28;19908;-71
2023/03/27 15:34:33;;;;;;;;;;;19.20;54.60;;;;;;6276679;28;19915;-71
2023/03/27 15:37:33;;;;;;;;;;;19.10;54.40;;;;;;6294815;28;20003;-71
2023/03/27 15:40:41;;;;;;;;;;;19.10;54.40;;;;;;6294608;28;20414;-71
2023/03/27 15:43:42;;;;;;;;;;;19.10;54.50;;;;;;6293734;28;19909;-71
2023/03/27 15:46:48;;;;;;;;;;;19.10;54.50;;;;;;6294657;28;20341;-71
2023/03/27 15:50:04;;;;;;;;;;;19.10;54.50;;;;;;6294473;28;19988;-71
2023/03/27 15:53:04;;;;;;;;;;;19.20;54.60;;;;;;6360147;23;20304;-71
2023/03/27 15:56:23;;;;;;;;;;;19.10;54.50;;;;;;6219276;28;20023;-72
2023/03/27 15:59:24;;;;;;;;;;;19.10;54.50;;;;;;6220728;28;19913;-74
2023/03/27 16:02:26;;;;;;;;;;;19.10;54.50;;;;;;6220544;28;19975;-72
2023/03/27 16:05:28;;;;;;;;;;;19.10;54.50;;;;;;6201706;28;20462;-71
2023/03/27 16:08:28;;;;;;;;;;;19.10;54.50;;;;;;6225099;28;19905;-72
2023/03/27 16:11:32;;;;;;;;;;;19.10;54.50;;;;;;6220221;28;19916;-72
2023/03/27 16:14:41;;;;;;;;;;;19.10;54.60;;;;;;6211357;28;19905;-72
2023/03/27 16:17:44;;;;;;;;;;;19.10;54.60;;;;;;6216404;28;19905;-72
2023/03/27 16:20:45;;;;;;;;;;;19.10;54.50;;;;;;6205402;28;21426;-73
2023/03/27 16:23:45;;;;;;;;;;;19.20;54.60;;;;;;6214726;28;20272;-72
2023/03/27 16:26:46;;;;;;;;;;;19.10;54.50;;;;;;6216332;28;20369;-72
2023/03/27 16:29:50;;;;;;;;;;;19.10;54.60;;;;;;6231730;28;19963;-72
2023/03/27 16:32:51;;;;;;;;;;;19.10;54.50;;;;;;6217510;28;19920;-73
2023/03/27 16:35:52;;;;;;;;;;;19.10;54.50;;;;;;6216631;28;19906;-73
2023/03/27 16:38:52;;;;;;;;;;;19.20;54.60;;;;;;6212112;28;19948;-72
2023/03/27 16:41:53;;;;;;;;;;;19.10;54.60;;;;;;6218005;28;19963;-73
2023/03/27 16:44:53;;;;;;;;;;;19.10;54.60;;;;;;6217143;28;20375;-72
2023/03/27 16:47:54;;;;;;;;;;;19.10;54.60;;;;;;6217205;28;19909;-72
2023/03/27 16:50:55;;;;;;;;;;;19.10;54.60;;;;;;6225175;28;19905;-72
2023/03/27 16:53:56;;;;;;;;;;;19.10;54.60;;;;;;6212869;28;20798;-72
2023/03/27 16:56:56;;;;;;;;;;;19.20;54.70;;;;;;6225891;28;20591;-72
2023/03/27 16:59:57;;;;;;;;;;;19.20;54.70;;;;;;6222650;28;19913;-72
2023/03/27 17:02:57;;;;;;;;;;;19.20;54.70;;;;;;6211222;28;19932;-72
2023/03/27 17:05:59;;;;;;;;;;;19.20;54.70;;;;;;6210415;28;19951;-72
2023/03/27 17:09:00;;;;;;;;;;;19.10;54.60;;;;;;6223413;28;19905;-72
2023/03/27 17:12:00;;;;;;;;;;;19.10;54.60;;;;;;6214296;28;19912;-72
2023/03/27 17:15:02;;;;;;;;;;;19.20;54.70;;;;;;6219805;28;19915;-72
2023/03/27 17:18:03;;;;;;;;;;;19.20;54.70;;;;;;6241875;28;19912;-72
2023/03/27 17:21:04;;;;;;;;;;;19.20;54.70;;;;;;6217993;28;19925;-72
2023/03/27 17:24:05;;;;;;;;;;;19.20;54.70;;;;;;6227429;28;19909;-73
2023/03/27 17:27:05;;;;;;;;;;;19.20;54.70;;;;;;6223096;28;20028;-72
2023/03/27 17:30:06;;;;;;;;;;;19.20;54.60;;;;;;6229527;28;20268;-73
2023/03/27 17:33:07;;;;;;;;;;;19.20;54.70;;;;;;6224189;28;20302;-71
2023/03/27 17:36:08;;;;;;;;;;;19.20;54.70;;;;;;6211856;28;20389;-73
2023/03/27 17:39:09;;;;;;;;;;;19.20;54.60;;;;;;6226087;28;19905;-73
2023/03/27 17:42:09;;;;;;;;;;;19.10;54.60;;;;;;6216115;28;20367;-72
2023/03/27 17:45:10;;;;;;;;;;;19.20;54.70;;;;;;6211138;28;19989;-71
2023/03/27 17:48:10;;;;;;;;;;;19.20;54.70;;;;;;6220132;28;19905;-72
2023/03/27 17:51:11;;;;;;;;;;;19.20;54.60;;;;;;6220105;28;19913;-72